AirNav   Air Wisconsin Up To $57,000 Bonus
 
 1263 users online  

2MU0 St Genevieve County Memorial Hospital Heliport
St Genevieve, Missouri, USA

GOING TO ST GENEVIEVE?


FAA INFORMATION EFFECTIVE 05 DECEMBER 2019

Location

FAA Identifier: 2MU0
Lat/Long: 37-58-06.6900N 090-03-15.9060W
37-58.111500N 090-03.265100W
37.9685250,-90.0544183
(estimated)
Elevation: 424 ft. / 129 m (estimated)
Variation: 01E (1995)
Time zone: UTC -6 (UTC -5 during Daylight Saving Time)
Zip code: 63670

Heliport Operations

Heliport use: Private use, MEDICAL USE.
Activation date: 08/1997
Control tower: no
ARTCC: KANSAS CITY CENTER
FSS: COLUMBIA FLIGHT SERVICE STATION
Attendance: UNATNDD
Wind indicator: yes
Segmented circle: yes
Lights: FOR PERIMETER LGTS CALL 573-883-2751.

Heliport Communications

WX AWOS-3PT at PCD (11 nm SE): 118.95 (573-543-5390)
WX AWOS-3 at SAR (20 nm NE): 118.375 (618-443-3296)

Nearby radio navigation aids

VOR radial/distance  VOR name  Freq  Var
FAMr025/19.6FARMINGTON VORTAC115.7001E

Heliport Services

Runway Information

Helipad H1

Dimensions: 45 x 41 ft. / 14 x 12 m
Surface: concrete
Runway edge lights: PERI
Latitude: 37-58.111500N
Longitude: 090-03.265100W
Elevation: 424.0 ft.
Traffic pattern: leftleft

Heliport Ownership and Management from official FAA records

Ownership: Privately-owned
Owner: ST GENEVIEVE COUNTY MEM HOS
HWY 61 & 32
ST GENEVIEVE, MO 63670
Phone 573-883-2751
Manager: ST GENEVIEVE COUNTY MEM HOS
HWY 61 & 32, ATTN: KEVIN SCHWEISS
ST GENEVIEVE, MO 63670
Phone 573-883-2751
ADDITIONAL CONTACT: LAURA BAILEY, 573-883-4429, LBAILEY@SGCMH.ORG

Additional Remarks

FOR CD CTC KANSAS CITY ARTCC AT 913-254-8508.

Instrument Procedures

There are no published instrument procedures at 2MU0.

Some nearby airports with instrument procedures:

KPCD - Perryville Regional Airport (11 nm SE)
KSAR - Sparta Community Airport-Hunter Field (20 nm NE)
KFES - Festus Memorial Airport (21 nm NW)
KFAM - Farmington Regional Airport (22 nm SW)
H88 - A Paul Vance Fredericktown Regional Airport (24 nm SW)
 
Loc | Ops | Rwys | IFR | FBO | Links
Com | Nav | Svcs | Stats | Notes

Kansas City Aviation Department
 
Area around 2MU0 (St Genevieve County Memorial Hospital Heliport)
 
Road maps at: MapQuest Bing Google
 
Aerial photo
No photo
 
Sectional chart

 
Airport distance calculator
Flying to St Genevieve County Memorial Hospital Heliport? Find the distance to fly.

From to 2MU0

Sunrise and sunset
Times for 07-Dec-2019
 Local
(UTC-6)
 Zulu
(UTC)
Morning civil twilight06:3512:35
Sunrise07:0413:04
Sunset16:4022:40
Evening civil twilight17:0923:09

Current date and time
Zulu (UTC)  08-Dec-2019 02:47:39
Local (UTC-6)  07-Dec-2019 20:47:39
 
METAR
KPCD 
11nm SE 
080235Z AUTO 00000KT 7SM OVC021 00/00 A3024 RMK AO2 T00031003
KSAR 
20nm NE 
080235Z AUTO 12003KT 10SM CLR 01/00 A3024 RMK AO2 T00070000
KFAM 
21nm SW 
080222Z AUTO 17003KT 10SM BKN007 BKN013 03/01 A3022 RMK AO2
TAF
KBLV 
35nm N 
080000Z 0800/0906 VRB06KT 9999 SKC QNH3026INS BECMG 0802/0803 VRB06KT 9999 BKN010 QNH3023INS BECMG 0815/0816 20012G18KT 9999 BKN015 QNH2992INS TX11/0820Z TN00/0800Z
KCPS 
36nm N 
071720Z 0718/0818 17006KT P6SM SKC
NOTAMs
Click for the latest NOTAMs
NOTAMs are issued by the DoD/FAA and will open in a separate window not controlled by AirNav.

 

 
 

Would you like to see your business listed on this page?

 If your business provides an interesting product or service to pilots, flight crews, aircraft, or users of the St Genevieve County Memorial Hospital Heliport, you should consider listing it here.  To start the listing process, click on the button below
 
Add a business
 

Other Pages about St Genevieve County Memorial Hospital Heliport

Update a link
 
Copyright © AirNav, LLC. All rights reserved. Privacy Policy  Contact